Time;durP1;ratioP1;P1;durP2;ratioP2;P2;SDS_P1;SDS_P2;PMS_P1;PMS_P2;Temp;Humidity;BMP_temperature;BMP_pressure;BME280_temperature;BME280_humidity;BME280_pressure;Samples;Min_cycle;Max_cycle;Signal;HPM_P1;HPM_P2
2022/04/27 00:02:09;;;;;;;7.80;4.22;;;4.40;99.90;;;;;;5118323;28;20100;-82
2022/04/27 00:04:34;;;;;;;6.93;4.25;;;4.30;99.90;;;;;;5118268;28;20047;-80
2022/04/27 00:07:04;;;;;;;8.52;4.20;;;4.30;99.90;;;;;;5118478;28;20048;-81
2022/04/27 00:09:32;;;;;;;8.02;4.72;;;4.30;99.90;;;;;;5117471;28;20051;-81
2022/04/27 00:12:01;;;;;;;8.63;4.53;;;4.30;99.90;;;;;;5116958;28;20059;-82
2022/04/27 00:14:31;;;;;;;7.53;4.80;;;4.20;99.90;;;;;;5118362;28;20065;-80
2022/04/27 00:16:58;;;;;;;12.18;5.25;;;4.20;99.90;;;;;;5117376;28;20040;-81
2022/04/27 00:19:27;;;;;;;6.95;4.70;;;4.20;99.90;;;;;;5118436;27;20048;-81
2022/04/27 00:21:53;;;;;;;8.88;5.00;;;4.20;99.90;;;;;;5117424;28;20047;-81
2022/04/27 00:24:18;;;;;;;7.88;4.50;;;4.10;99.90;;;;;;5118120;28;20046;-80
2022/04/27 00:26:45;;;;;;;8.65;4.68;;;4.10;99.90;;;;;;5117881;28;20419;-82
2022/04/27 00:29:11;;;;;;;11.05;4.93;;;4.10;99.90;;;;;;5118187;28;20047;-81
2022/04/27 00:31:37;;;;;;;8.40;4.65;;;4.00;99.90;;;;;;5118054;28;20050;-80
2022/04/27 00:34:03;;;;;;;11.50;5.22;;;4.00;99.90;;;;;;5118079;28;20047;-82
2022/04/27 00:36:31;;;;;;;7.72;5.43;;;4.00;99.90;;;;;;5116986;28;20483;-80
2022/04/27 00:38:58;;;;;;;10.68;5.20;;;3.90;99.90;;;;;;5117916;28;20040;-80
2022/04/27 00:41:24;;;;;;;7.53;5.68;;;3.90;99.90;;;;;;5117605;28;20092;-81
2022/04/27 00:43:50;;;;;;;7.82;5.20;;;3.90;99.90;;;;;;5116362;28;20047;-82
2022/04/27 00:46:15;;;;;;;8.57;5.45;;;3.80;99.90;;;;;;5117876;28;20039;-82
2022/04/27 00:48:41;;;;;;;8.23;6.05;;;3.80;99.90;;;;;;5117566;28;20093;-80
2022/04/27 00:51:11;;;;;;;10.77;5.50;;;3.80;99.90;;;;;;5117410;28;20554;-81
2022/04/27 00:53:37;;;;;;;8.75;6.05;;;3.80;99.90;;;;;;5133505;27;20317;-82
2022/04/27 00:56:03;;;;;;;10.48;5.53;;;3.70;99.90;;;;;;5117159;28;20086;-80
2022/04/27 00:58:29;;;;;;;11.35;4.97;;;3.70;99.90;;;;;;5133964;27;20523;-81
2022/04/27 01:00:55;;;;;;;11.50;5.53;;;3.40;99.90;;;;;;5117336;28;20040;-79
2022/04/27 01:03:24;;;;;;;8.35;4.72;;;3.60;99.90;;;;;;5117239;28;20118;-80
2022/04/27 01:05:51;;;;;;;8.45;5.43;;;3.50;99.90;;;;;;5117313;28;20180;-80
2022/04/27 01:08:17;;;;;;;10.48;5.05;;;3.50;99.90;;;;;;5117356;28;20047;-80
2022/04/27 01:10:44;;;;;;;9.55;5.18;;;3.50;99.90;;;;;;5116658;27;20130;-82
2022/04/27 01:13:11;;;;;;;7.00;4.70;;;3.40;99.90;;;;;;5116364;28;20398;-80
2022/04/27 01:15:37;;;;;;;9.50;5.25;;;3.40;99.90;;;;;;5117314;28;20051;-81
2022/04/27 01:18:03;;;;;;;9.10;5.10;;;3.40;99.90;;;;;;5116145;28;20088;-82
2022/04/27 01:20:47;;;;;;;9.20;4.97;;;3.40;99.90;;;;;;5116019;28;20120;-82
2022/04/27 01:23:13;;;;;;;11.38;5.63;;;3.30;99.90;;;;;;5116551;28;20369;-81
2022/04/27 01:25:48;;;;;;;11.45;6.43;;;3.30;99.90;;;;;;5117153;27;20036;-82
2022/04/27 01:28:17;;;;;;;9.30;5.38;;;3.30;99.90;;;;;;5116000;28;20043;-82
2022/04/27 01:30:44;;;;;;;10.77;6.20;;;3.20;99.90;;;;;;5115803;28;20487;-81
2022/04/27 01:33:10;;;;;;;10.23;6.10;;;3.20;99.90;;;;;;5117033;28;20043;-81
2022/04/27 01:35:36;;;;;;;11.77;6.10;;;3.20;99.90;;;;;;5115664;28;20048;-80
2022/04/27 01:38:02;;;;;;;8.57;5.30;;;3.10;99.90;;;;;;5116859;28;20364;-81
2022/04/27 01:40:27;;;;;;;10.38;5.70;;;3.10;99.90;;;;;;5116956;28;20060;-81
2022/04/27 01:42:53;;;;;;;10.60;6.55;;;3.00;99.90;;;;;;5098718;28;20043;-80
2022/04/27 01:45:19;;;;;;;9.30;5.43;;;2.90;99.90;;;;;;5116520;28;20126;-80
2022/04/27 01:47:44;;;;;;;14.18;6.15;;;2.90;99.90;;;;;;5115590;28;20039;-81
2022/04/27 01:50:10;;;;;;;12.45;6.22;;;2.80;99.90;;;;;;5115640;28;20047;-81
2022/04/27 01:55:39;;;;;;;14.02;7.05;;;2.80;99.90;;;;;;5053525;28;20057;-81
2022/04/27 01:58:05;;;;;;;9.82;6.50;;;2.90;99.90;;;;;;5053663;28;20053;-81
2022/04/27 02:00:31;;;;;;;12.65;6.30;;;2.90;99.90;;;;;;5071466;28;20181;-81
2022/04/27 02:02:56;;;;;;;9.18;6.07;;;2.90;99.90;;;;;;5116378;28;20055;-80
2022/04/27 02:05:22;;;;;;;12.48;6.30;;;2.90;99.90;;;;;;5116137;28;20476;-80
2022/04/27 02:07:48;;;;;;;10.95;6.20;;;2.80;99.90;;;;;;5116228;28;20040;-82
2022/04/27 02:10:13;;;;;;;10.15;5.95;;;2.80;99.90;;;;;;5132583;27;20032;-81
2022/04/27 02:12:39;;;;;;;10.90;5.40;;;2.80;99.90;;;;;;5116231;28;20112;-81
2022/04/27 02:15:06;;;;;;;11.80;5.80;;;2.80;99.90;;;;;;5114871;28;20055;-81
2022/04/27 02:17:32;;;;;;;8.50;6.00;;;2.70;99.90;;;;;;5115497;28;20469;-80
2022/04/27 02:19:57;;;;;;;12.10;6.18;;;2.70;99.90;;;;;;5114560;28;20073;-81
2022/04/27 02:22:23;;;;;;;13.93;6.15;;;2.60;99.90;;;;;;5114417;28;20047;-81
2022/04/27 02:24:49;;;;;;;12.23;6.40;;;2.70;99.90;;;;;;5117336;28;20069;-81
2022/04/27 02:27:15;;;;;;;8.43;5.77;;;2.60;99.90;;;;;;5119109;28;20073;-81
2022/04/27 02:29:41;;;;;;;11.93;6.60;;;2.60;99.90;;;;;;5139200;28;20085;-81
2022/04/27 02:32:07;;;;;;;8.97;5.83;;;2.60;99.90;;;;;;5139185;28;20035;-81
2022/04/27 02:34:32;;;;;;;10.90;6.57;;;2.60;99.90;;;;;;5139268;28;20055;-80
2022/04/27 02:36:58;;;;;;;9.57;6.10;;;2.50;99.90;;;;;;5138926;28;20031;-80
2022/04/27 02:39:23;;;;;;;15.02;6.82;;;2.50;99.90;;;;;;5138697;28;20138;-81
2022/04/27 02:41:49;;;;;;;12.25;7.25;;;2.40;99.90;;;;;;5138560;28;20055;-80
2022/04/27 02:44:15;;;;;;;10.63;7.25;;;2.40;99.90;;;;;;5137344;28;20036;-76
2022/04/27 02:46:41;;;;;;;13.88;6.65;;;2.40;99.90;;;;;;5137730;28;20077;-80
2022/04/27 02:51:51;;;;;;;14.10;6.95;;;2.40;99.90;;;;;;5124011;28;20047;-81
2022/04/27 02:54:22;;;;;;;10.60;6.80;;;2.40;99.90;;;;;;5122358;28;20048;-81
2022/04/27 02:56:48;;;;;;;10.73;6.18;;;2.40;99.90;;;;;;5122239;28;20399;-81
2022/04/27 02:59:14;;;;;;;11.02;6.47;;;2.40;99.90;;;;;;5116517;28;20145;-80
2022/04/27 03:01:40;;;;;;;9.33;6.17;;;2.30;99.90;;;;;;5115154;28;20130;-81
2022/04/27 03:04:07;;;;;;;9.95;6.90;;;2.30;99.90;;;;;;5130841;27;20123;-81
2022/04/27 03:06:32;;;;;;;11.90;6.65;;;2.30;99.90;;;;;;5131371;27;20051;-80
2022/04/27 03:08:58;;;;;;;14.77;7.57;;;2.30;99.90;;;;;;5114949;28;20066;-81
2022/04/27 03:11:23;;;;;;;12.07;6.78;;;2.30;99.90;;;;;;5130885;27;20051;-80
2022/04/27 03:13:50;;;;;;;9.85;6.88;;;2.30;99.90;;;;;;5114554;28;20051;-81
2022/04/27 03:16:15;;;;;;;10.73;6.68;;;2.30;99.90;;;;;;5114743;28;20054;-80
2022/04/27 03:18:42;;;;;;;12.15;6.38;;;2.30;99.90;;;;;;5114826;28;20036;-82
2022/04/27 03:21:07;;;;;;;9.50;6.63;;;2.30;99.90;;;;;;5114926;28;20134;-81
2022/04/27 03:23:33;;;;;;;11.10;6.35;;;2.30;99.90;;;;;;5113436;28;20127;-81
2022/04/27 03:25:58;;;;;;;9.98;6.15;;;2.30;99.90;;;;;;5114687;28;20043;-80
2022/04/27 03:28:24;;;;;;;11.43;7.00;;;2.20;99.90;;;;;;5114448;28;20054;-81
2022/04/27 03:30:50;;;;;;;13.55;6.88;;;2.10;99.90;;;;;;5114568;28;20044;-80
2022/04/27 03:33:16;;;;;;;13.63;7.38;;;2.10;99.90;;;;;;5113619;28;20047;-80
2022/04/27 03:35:42;;;;;;;14.90;6.65;;;2.10;99.90;;;;;;5113778;28;20044;-82
2022/04/27 03:38:08;;;;;;;15.00;7.45;;;2.20;99.90;;;;;;5131113;27;20105;-81
2022/04/27 03:40:35;;;;;;;13.05;8.25;;;2.30;99.90;;;;;;5114708;28;20083;-81
2022/04/27 03:43:01;;;;;;;12.38;6.72;;;2.30;99.90;;;;;;5114154;28;20043;-80
2022/04/27 03:45:26;;;;;;;14.18;7.15;;;2.30;99.90;;;;;;5130601;28;20490;-80
2022/04/27 03:47:52;;;;;;;12.60;7.90;;;2.40;99.90;;;;;;5113193;28;20126;-81
2022/04/27 03:50:18;;;;;;;12.10;7.30;;;2.40;99.90;;;;;;5114753;28;20531;-81
2022/04/27 03:52:44;;;;;;;11.00;6.72;;;2.00;99.90;;;;;;5114477;28;20047;-81
2022/04/27 03:55:10;;;;;;;12.65;7.90;;;2.40;99.90;;;;;;5113277;28;20075;-80
2022/04/27 03:57:37;;;;;;;10.45;6.45;;;2.50;99.90;;;;;;5113332;28;20048;-81
2022/04/27 04:00:03;;;;;;;;;;;2.50;99.90;;;;;;5113784;28;20051;-81
2022/04/27 04:02:29;;;;;;;12.35;7.07;;;2.50;99.90;;;;;;5114124;28;19919;-82
2022/04/27 04:04:55;;;;;;;10.38;6.40;;;2.50;99.90;;;;;;5114137;28;20046;-81
2022/04/27 04:07:20;;;;;;;12.60;6.70;;;2.50;99.90;;;;;;5114179;28;20075;-82
2022/04/27 04:09:46;;;;;;;11.48;7.40;;;2.60;99.90;;;;;;5112792;28;20057;-79
2022/04/27 04:12:13;;;;;;;11.18;6.50;;;2.60;99.90;;;;;;5113976;28;20059;-80
2022/04/27 04:14:39;;;;;;;12.15;6.70;;;2.60;99.90;;;;;;5114187;28;20096;-81
2022/04/27 04:17:05;;;;;;;10.52;6.80;;;2.60;99.90;;;;;;5114194;28;20044;-82
2022/04/27 04:19:32;;;;;;;11.18;6.72;;;2.60;99.90;;;;;;5114180;28;20035;-82
2022/04/27 04:21:59;;;;;;;13.18;7.20;;;2.70;99.90;;;;;;5096404;28;20083;-81
2022/04/27 04:24:25;;;;;;;11.20;6.45;;;2.80;99.90;;;;;;5112778;28;20089;-82
2022/04/27 04:29:35;;;;;;;12.98;6.70;;;2.90;99.90;;;;;;5114321;28;20130;-81
2022/04/27 04:32:00;;;;;;;15.13;7.30;;;2.90;99.90;;;;;;5113976;28;20533;-81
2022/04/27 04:34:26;;;;;;;11.27;7.45;;;3.00;99.90;;;;;;5113934;28;20383;-80
2022/04/27 04:36:51;;;;;;;11.57;7.22;;;3.00;99.90;;;;;;5112665;28;20043;-82
2022/04/27 04:39:17;;;;;;;13.10;7.80;;;3.10;99.90;;;;;;5113878;28;20047;-80
2022/04/27 04:41:43;;;;;;;10.77;6.30;;;3.10;99.90;;;;;;5112652;28;20048;-80
2022/04/27 04:44:08;;;;;;;11.25;7.60;;;3.20;99.90;;;;;;5112716;28;20043;-80
2022/04/27 04:46:34;;;;;;;10.82;7.22;;;3.20;99.90;;;;;;5115776;28;20503;-81
2022/04/27 04:48:59;;;;;;;12.98;7.32;;;3.30;99.90;;;;;;5117617;28;20484;-81
2022/04/27 04:51:25;;;;;;;18.02;8.30;;;3.30;99.90;;;;;;5117494;28;20119;-80
2022/04/27 04:53:50;;;;;;;13.70;7.45;;;3.40;99.90;;;;;;5117280;28;20050;-82
2022/04/27 04:56:16;;;;;;;13.38;7.57;;;3.40;99.90;;;;;;5117435;28;20066;-82
2022/04/27 04:58:42;;;;;;;14.68;8.70;;;3.50;99.90;;;;;;5117359;28;20126;-81
2022/04/27 05:01:07;;;;;;;13.07;7.60;;;3.60;99.90;;;;;;5117188;28;20055;-81
2022/04/27 05:03:36;;;;;;;12.30;7.78;;;3.60;99.90;;;;;;5117065;28;20046;-80
2022/04/27 05:06:03;;;;;;;12.88;8.27;;;3.70;99.90;;;;;;5117219;28;20086;-82
2022/04/27 05:08:28;;;;;;;16.92;8.82;;;4.10;99.90;;;;;;5116734;28;20479;-79
2022/04/27 05:10:54;;;;;;;16.25;8.25;;;3.90;99.90;;;;;;5116965;28;20051;-80
2022/04/27 05:13:19;;;;;;;12.73;7.95;;;4.00;99.90;;;;;;5115204;28;20048;-80
2022/04/27 05:15:45;;;;;;;13.80;8.68;;;4.10;99.90;;;;;;5116896;28;20134;-80
2022/04/27 05:18:11;;;;;;;17.98;8.65;;;4.20;99.90;;;;;;5116891;28;20134;-81
2022/04/27 05:20:38;;;;;;;17.83;9.15;;;4.30;99.90;;;;;;5117234;28;20039;-81
2022/04/27 05:23:04;;;;;;;12.40;8.40;;;4.30;99.90;;;;;;5116961;28;20052;-80
2022/04/27 05:25:30;;;;;;;14.40;8.70;;;4.40;99.90;;;;;;5115787;28;20119;-80
2022/04/27 05:27:55;;;;;;;14.35;9.07;;;4.50;99.90;;;;;;5115939;28;20100;-80
2022/04/27 05:33:05;;;;;;;15.63;9.23;;;4.70;99.90;;;;;;5116813;28;20047;-81
2022/04/27 05:35:30;;;;;;;14.80;8.95;;;4.80;99.90;;;;;;5116792;28;20509;-81
2022/04/27 05:37:56;;;;;;;14.80;8.73;;;4.90;99.90;;;;;;5117042;28;20096;-81
2022/04/27 05:40:22;;;;;;;12.40;9.18;;;5.00;99.90;;;;;;5133154;27;20052;-81
2022/04/27 05:42:48;;;;;;;15.60;8.50;;;5.10;99.90;;;;;;5116429;28;20398;-81
2022/04/27 05:45:14;;;;;;;14.85;8.45;;;5.20;99.90;;;;;;5116536;28;20054;-81
2022/04/27 05:47:40;;;;;;;11.77;7.80;;;5.30;99.90;;;;;;5116207;28;20525;-79
2022/04/27 05:50:06;;;;;;;15.00;8.82;;;5.40;99.90;;;;;;5116057;28;20138;-81
2022/04/27 05:52:49;;;;;;;17.15;9.82;;;5.50;99.90;;;;;;5116334;28;20156;-81
2022/04/27 05:55:15;;;;;;;12.88;8.57;;;5.60;99.90;;;;;;5116684;28;20069;-80
2022/04/27 05:57:40;;;;;;;18.80;9.38;;;5.70;99.90;;;;;;5115866;28;20380;-81
2022/04/27 06:00:07;;;;;;;15.55;9.48;;;5.90;99.90;;;;;;5116129;28;20039;-81
2022/04/27 06:02:32;;;;;;;17.35;8.48;;;5.90;99.90;;;;;;5115864;28;20054;-80
2022/04/27 06:04:58;;;;;;;13.40;8.00;;;6.10;99.90;;;;;;5116065;28;20048;-80
2022/04/27 06:07:25;;;;;;;13.30;7.35;;;6.20;99.90;;;;;;5114810;28;20467;-81
2022/04/27 06:09:50;;;;;;;17.67;8.43;;;6.30;99.90;;;;;;5116589;28;20055;-81
2022/04/27 06:12:16;;;;;;;12.20;7.60;;;6.40;99.90;;;;;;5115765;28;20048;-80
2022/04/27 06:14:41;;;;;;;12.57;7.93;;;6.50;99.90;;;;;;5115998;28;20073;-82
2022/04/27 06:17:08;;;;;;;10.73;7.03;;;6.70;99.90;;;;;;5114422;28;20047;-80
2022/04/27 06:19:33;;;;;;;12.55;7.43;;;6.80;99.90;;;;;;5114881;28;20044;-82
2022/04/27 06:21:59;;;;;;;12.65;7.07;;;6.90;99.90;;;;;;5115610;28;20130;-81
2022/04/27 06:24:26;;;;;;;13.13;6.60;;;7.00;99.90;;;;;;5115620;28;20051;-79
2022/04/27 06:26:53;;;;;;;;;;;7.10;99.90;;;;;;5115144;28;20039;-82
2022/04/27 06:29:19;;;;;;;12.03;7.50;;;7.20;99.90;;;;;;5115509;28;19974;-79
2022/04/27 06:31:45;;;;;;;11.88;7.43;;;7.20;99.90;;;;;;5115365;28;20100;-81
2022/04/27 06:34:12;;;;;;;23.67;7.90;;;7.30;99.90;;;;;;5115495;28;20109;-82
2022/04/27 06:36:38;;;;;;;14.80;7.57;;;7.40;99.90;;;;;;5114291;28;20063;-80
2022/04/27 06:39:07;;;;;;;15.70;8.80;;;7.40;99.90;;;;;;5114972;28;20047;-81
2022/04/27 06:41:33;;;;;;;16.33;8.05;;;7.00;99.90;;;;;;5115068;28;20039;-80
2022/04/27 06:43:58;;;;;;;15.68;8.10;;;7.50;99.90;;;;;;5115131;28;20043;-81
2022/04/27 06:46:24;;;;;;;15.57;8.23;;;7.50;99.90;;;;;;5114103;28;20104;-82
2022/04/27 06:48:50;;;;;;;17.00;7.88;;;7.60;99.90;;;;;;5115137;28;20043;-82
2022/04/27 06:51:17;;;;;;;13.95;7.72;;;7.60;99.90;;;;;;5115001;28;20483;-82
2022/04/27 06:53:44;;;;;;;11.57;7.00;;;7.60;99.90;;;;;;5114015;28;20088;-81
2022/04/27 06:56:10;;;;;;;11.00;7.07;;;7.70;99.90;;;;;;5113913;28;20051;-81
2022/04/27 06:58:35;;;;;;;16.95;7.22;;;7.70;99.90;;;;;;5115439;28;20047;-81
2022/04/27 07:01:06;;;;;;;13.98;7.35;;;7.80;99.90;;;;;;5115545;28;20422;-80
2022/04/27 07:03:32;;;;;;;16.95;7.40;;;7.80;99.90;;;;;;5115229;28;20112;-79
2022/04/27 07:05:58;;;;;;;13.65;7.10;;;7.90;99.90;;;;;;5114954;28;20043;-80
2022/04/27 07:08:25;;;;;;;13.05;6.38;;;7.90;99.90;;;;;;5114155;28;20050;-81
2022/04/27 07:10:51;;;;;;;14.23;6.60;;;8.00;99.90;;;;;;5113784;28;20058;-81
2022/04/27 07:13:16;;;;;;;15.57;7.03;;;8.00;99.90;;;;;;5130622;27;20138;-81
2022/04/27 07:15:42;;;;;;;12.25;7.18;;;8.10;99.90;;;;;;5114569;28;20059;-79
2022/04/27 07:18:07;;;;;;;11.63;7.18;;;8.10;99.90;;;;;;5114581;28;20085;-80
2022/04/27 07:20:33;;;;;;;11.98;6.72;;;8.10;99.90;;;;;;5114467;28;20046;-82
2022/04/27 07:22:59;;;;;;;13.52;6.28;;;8.20;99.90;;;;;;5114504;28;20043;-80
2022/04/27 07:25:24;;;;;;;11.93;7.10;;;8.30;99.90;;;;;;5114585;28;20052;-80
2022/04/27 07:27:50;;;;;;;10.48;6.15;;;8.30;99.90;;;;;;5114497;28;20122;-82
2022/04/27 07:30:15;;;;;;;10.35;6.85;;;8.30;99.90;;;;;;5114717;28;20086;-80
2022/04/27 07:32:42;;;;;;;11.15;6.47;;;8.40;99.90;;;;;;5114119;28;20044;-81
2022/04/27 07:35:07;;;;;;;13.07;5.88;;;8.50;99.90;;;;;;5114427;28;20048;-82
2022/04/27 07:37:37;;;;;;;17.10;6.75;;;8.60;99.90;;;;;;5113151;28;20428;-80
2022/04/27 07:40:04;;;;;;;10.13;5.68;;;8.60;99.90;;;;;;5113431;28;20047;-80
2022/04/27 07:42:29;;;;;;;10.23;5.65;;;8.70;99.90;;;;;;5113393;28;20051;-81
2022/04/27 07:44:55;;;;;;;9.93;5.25;;;8.80;99.90;;;;;;5113028;28;20395;-81
2022/04/27 07:47:20;;;;;;;8.35;4.53;;;8.90;99.90;;;;;;5113285;28;20036;-81
2022/04/27 07:49:47;;;;;;;7.40;3.85;;;9.00;99.90;;;;;;5112916;28;20043;-81
2022/04/27 07:52:13;;;;;;;;;;;9.20;99.90;;;;;;5113347;28;20104;-81
2022/04/27 07:54:41;;;;;;;5.90;3.75;;;9.20;99.90;;;;;;5096397;28;19923;-81
2022/04/27 07:57:07;;;;;;;10.02;4.05;;;9.30;99.90;;;;;;5113383;28;20055;-81
2022/04/27 07:59:32;;;;;;;7.63;3.75;;;9.30;99.90;;;;;;5114265;28;20065;-83
2022/04/27 08:01:58;;;;;;;6.95;3.80;;;9.40;99.90;;;;;;5114329;28;20131;-81
2022/04/27 08:04:23;;;;;;;7.00;4.50;;;9.50;99.90;;;;;;5113877;28;20364;-80
2022/04/27 08:06:49;;;;;;;5.75;3.38;;;9.60;99.90;;;;;;5114140;28;20075;-81
2022/04/27 08:09:16;;;;;;;8.00;3.30;;;9.70;99.90;;;;;;5114514;28;20039;-81
2022/04/27 08:11:42;;;;;;;5.30;2.80;;;9.80;99.90;;;;;;5112498;28;20392;-82
2022/04/27 08:14:07;;;;;;;6.25;2.90;;;9.90;99.90;;;;;;5114407;28;20066;-80
2022/04/27 08:16:33;;;;;;;8.25;3.13;;;9.90;99.90;;;;;;5113723;28;20036;-81
2022/04/27 08:18:59;;;;;;;9.00;3.53;;;10.00;99.90;;;;;;5113928;28;20044;-81
2022/04/27 08:21:27;;;;;;;5.32;3.33;;;10.10;99.90;;;;;;5114810;28;20127;-82
2022/04/27 08:23:53;;;;;;;6.78;3.10;;;10.10;99.90;;;;;;5116890;28;20050;-80
2022/04/27 08:26:19;;;;;;;5.20;3.22;;;10.70;99.90;;;;;;5117915;28;20044;-81
2022/04/27 08:28:47;;;;;;;5.95;2.97;;;10.30;99.90;;;;;;5116849;28;20365;-81
2022/04/27 08:31:16;;;;;;;8.10;2.95;;;10.50;99.90;;;;;;5118285;28;20403;-82
2022/04/27 08:33:42;;;;;;;4.38;2.70;;;10.60;99.90;;;;;;5117820;28;20364;-81
2022/04/27 08:36:08;;;;;;;9.75;3.17;;;10.70;99.90;;;;;;5117965;28;20040;-80
2022/04/27 08:38:34;;;;;;;7.32;2.83;;;10.80;99.90;;;;;;5117795;28;20092;-80
2022/04/27 08:40:59;;;;;;;3.83;2.25;;;11.00;99.90;;;;;;5116619;28;20047;-82
2022/04/27 08:43:26;;;;;;;5.80;2.63;;;11.20;99.90;;;;;;5117553;28;20036;-81
2022/04/27 08:45:52;;;;;;;8.00;3.00;;;11.30;99.90;;;;;;5116828;28;20058;-80
2022/04/27 08:48:18;;;;;;;6.68;2.35;;;11.40;99.90;;;;;;5117453;28;20051;-82
2022/04/27 08:50:45;;;;;;;4.15;2.28;;;11.50;99.90;;;;;;5116399;28;20058;-82
2022/04/27 08:53:11;;;;;;;6.68;2.53;;;11.70;99.90;;;;;;5116711;28;20039;-82
2022/04/27 08:55:38;;;;;;;5.80;2.38;;;11.80;99.90;;;;;;5116236;28;20047;-81
2022/04/27 08:58:15;;;;;;;6.88;2.80;;;11.90;99.90;;;;;;5117561;28;20047;-81
2022/04/27 09:00:43;;;;;;;5.18;2.00;;;12.00;99.90;;;;;;5116429;28;20088;-81
2022/04/27 09:03:25;;;;;;;3.35;1.70;;;11.90;99.90;;;;;;5117107;28;20048;-82
2022/04/27 09:06:05;;;;;;;6.57;2.10;;;11.80;99.90;;;;;;5116016;28;20039;-82
2022/04/27 09:08:47;;;;;;;5.80;1.98;;;11.90;99.90;;;;;;5117016;28;20040;-81
2022/04/27 09:11:21;;;;;;;4.55;2.15;;;11.90;99.90;;;;;;5117096;28;20395;-81
2022/04/27 09:13:48;;;;;;;5.65;1.83;;;11.90;99.90;;;;;;5117862;28;20527;-81
2022/04/27 09:16:14;;;;;;;5.30;2.00;;;11.90;99.90;;;;;;5116895;28;20056;-81
2022/04/27 09:21:52;;;;;;;6.10;2.38;;;11.60;99.90;;;;;;5116901;28;20052;-83
2022/04/27 09:24:18;;;;;;;10.40;2.80;;;11.60;99.90;;;;;;5116804;28;20086;-82
2022/04/27 09:26:43;;;;;;;6.43;2.15;;;11.60;99.90;;;;;;5116893;28;20074;-81
2022/04/27 09:29:23;;;;;;;5.47;1.98;;;11.60;99.90;;;;;;5116859;28;20475;-81
2022/04/27 09:31:55;;;;;;;3.75;1.52;;;11.70;99.90;;;;;;5115380;28;20048;-82
2022/04/27 09:34:29;;;;;;;3.83;2.15;;;11.70;99.90;;;;;;5115986;28;20061;-81
2022/04/27 09:37:11;;;;;;;3.78;1.88;;;11.70;99.90;;;;;;5115820;28;20498;-81
2022/04/27 09:39:37;;;;;;;6.88;2.13;;;11.80;99.90;;;;;;5132849;27;20096;-81
2022/04/27 09:42:08;;;;;;;4.88;2.50;;;11.90;99.90;;;;;;5115378;28;20130;-79
2022/04/27 09:44:35;;;;;;;5.07;2.13;;;11.90;99.90;;;;;;5116186;27;20039;-80
2022/04/27 09:47:04;;;;;;;;;;;12.00;99.90;;;;;;5115458;28;20165;-79
2022/04/27 09:49:39;;;;;;;5.30;1.98;;;12.10;99.90;;;;;;5115877;28;19919;-80
2022/04/27 09:52:06;;;;;;;3.63;2.33;;;12.10;99.90;;;;;;5115817;28;20047;-81
2022/04/27 09:54:36;;;;;;;6.82;2.25;;;11.90;99.90;;;;;;5116154;28;20128;-80
2022/04/27 09:57:06;;;;;;;4.25;2.05;;;11.80;99.90;;;;;;5116671;28;20083;-83
2022/04/27 09:59:36;;;;;;;5.18;1.80;;;12.20;99.90;;;;;;5115132;28;20040;-82
2022/04/27 10:02:06;;;;;;;4.90;2.20;;;11.60;99.90;;;;;;5116169;28;20108;-81
2022/04/27 10:04:33;;;;;;;6.72;2.30;;;11.70;99.90;;;;;;5116017;28;20048;-81
2022/04/27 10:07:02;;;;;;;3.67;2.13;;;11.80;99.90;;;;;;5114823;28;20101;-82
2022/04/27 10:09:31;;;;;;;4.72;2.35;;;12.00;99.90;;;;;;5132096;27;20236;-81
2022/04/27 10:11:59;;;;;;;8.18;2.53;;;12.00;99.90;;;;;;5115740;28;20104;-80
2022/04/27 10:14:26;;;;;;;5.68;2.28;;;12.10;99.90;;;;;;5115912;28;20047;-80
2022/04/27 10:16:52;;;;;;;4.22;2.20;;;12.10;99.90;;;;;;5116088;28;20039;-80
2022/04/27 10:19:18;;;;;;;4.43;2.20;;;12.20;99.90;;;;;;5115362;28;20043;-82
2022/04/27 10:21:59;;;;;;;7.70;2.50;;;12.20;99.90;;;;;;5115893;28;20073;-80
2022/04/27 10:24:34;;;;;;;6.63;2.30;;;12.30;99.90;;;;;;5115724;28;20043;-80
2022/04/27 10:27:26;;;;;;;3.85;2.00;;;12.40;99.90;;;;;;5114775;28;20083;-81
2022/04/27 10:29:57;;;;;;;3.72;2.17;;;12.40;99.60;;;;;;5114669;28;20054;-81
2022/04/27 10:32:37;;;;;;;2.97;1.80;;;12.50;99.90;;;;;;5115877;28;20039;-81
2022/04/27 10:35:12;;;;;;;5.03;2.30;;;12.50;99.90;;;;;;5115708;28;20055;-81
2022/04/27 10:37:59;;;;;;;5.75;2.35;;;12.50;97.70;;;;;;5115826;28;20044;-81
2022/04/27 10:40:31;;;;;;;6.60;2.20;;;12.60;99.50;;;;;;5115393;28;20069;-82
2022/04/27 10:43:10;;;;;;;5.82;2.08;;;12.60;99.60;;;;;;5115257;28;20534;-83
2022/04/27 10:45:41;;;;;;;5.68;2.13;;;12.50;98.10;;;;;;5116240;28;20070;-81
2022/04/27 10:48:45;;;;;;;4.28;2.20;;;12.60;99.30;;;;;;5115679;28;20047;-80
2022/04/27 10:51:10;;;;;;;6.60;1.90;;;12.70;98.30;;;;;;5115735;28;20047;-80
2022/04/27 10:53:40;;;;;;;6.65;2.13;;;12.80;98.80;;;;;;5132224;27;20048;-81
2022/04/27 10:56:23;;;;;;;3.20;2.00;;;12.80;98.90;;;;;;5115227;28;20075;-81
2022/04/27 10:58:49;;;;;;;4.57;2.30;;;12.90;96.80;;;;;;5114984;28;20101;-82
2022/04/27 11:01:27;;;;;;;3.03;1.83;;;13.00;98.20;;;;;;5114840;28;20079;-81
2022/04/27 11:03:57;;;;;;;3.92;2.17;;;13.10;97.10;;;;;;5114928;27;20391;-81
2022/04/27 11:06:23;;;;;;;5.28;1.98;;;13.10;98.00;;;;;;5113827;28;20430;-81
2022/04/27 11:09:10;;;;;;;4.55;1.98;;;13.10;98.00;;;;;;5113782;28;20096;-81
2022/04/27 11:11:55;;;;;;;5.13;1.90;;;13.30;95.50;;;;;;5114616;28;20044;-81
2022/04/27 11:14:27;;;;;;;6.15;1.80;;;13.30;96.90;;;;;;5113868;28;20497;-81
2022/04/27 11:16:53;;;;;;;2.45;1.60;;;13.30;98.50;;;;;;5115069;28;20052;-81
2022/04/27 11:19:18;;;;;;;6.93;2.15;;;13.20;96.00;;;;;;5096709;28;20059;-81
2022/04/27 11:21:46;;;;;;;6.28;1.90;;;13.10;96.60;;;;;;5114812;28;20116;-82
2022/04/27 11:24:13;;;;;;;5.93;2.15;;;13.00;95.00;;;;;;5114613;28;20044;-82
2022/04/27 11:26:46;;;;;;;9.27;2.10;;;12.80;95.60;;;;;;5114722;28;20087;-82
2022/04/27 11:29:16;;;;;;;3.10;1.90;;;12.80;96.50;;;;;;5114363;28;20044;-81
2022/04/27 11:31:43;;;;;;;3.55;1.75;;;12.80;96.70;;;;;;5113654;28;20399;-81
2022/04/27 11:34:26;;;;;;;4.13;2.00;;;12.80;96.90;;;;;;5114679;28;20079;-82
2022/04/27 11:36:53;;;;;;;3.78;1.58;;;12.80;95.50;;;;;;5114497;28;20541;-82
2022/04/27 11:39:23;;;;;;;3.67;2.00;;;12.80;97.00;;;;;;5113510;28;20073;-81
2022/04/27 11:42:01;;;;;;;7.07;2.13;;;12.80;97.40;;;;;;5114758;28;20043;-82
2022/04/27 11:44:28;;;;;;;5.10;1.77;;;12.70;96.10;;;;;;5113444;28;20044;-82
2022/04/27 11:46:54;;;;;;;5.85;1.75;;;12.70;96.90;;;;;;5113137;28;20079;-83
2022/04/27 11:49:21;;;;;;;4.13;1.80;;;12.80;95.60;;;;;;5114310;28;20078;-82
2022/04/27 11:51:48;;;;;;;4.75;1.80;;;12.80;96.70;;;;;;5113196;28;20059;-81
2022/04/27 11:54:34;;;;;;;2.72;1.58;;;12.80;96.30;;;;;;5113395;28;20055;-80
2022/04/27 11:57:03;;;;;;;4.03;1.80;;;12.90;96.40;;;;;;5116393;28;20101;-80
2022/04/27 11:59:42;;;;;;;5.93;1.70;;;12.80;96.20;;;;;;5117371;28;20048;-81
2022/04/27 12:02:12;;;;;;;6.95;1.90;;;12.90;96.80;;;;;;5118518;28;20036;-81
2022/04/27 12:04:37;;;;;;;3.55;1.70;;;13.30;95.10;;;;;;5118653;28;20093;-81
2022/04/27 12:07:13;;;;;;;3.63;1.80;;;13.50;94.80;;;;;;5134317;27;20453;-80
2022/04/27 12:09:39;;;;;;;6.38;1.85;;;13.50;94.10;;;;;;5118474;28;20131;-82
2022/04/27 12:12:07;;;;;;;3.67;2.15;;;13.40;94.40;;;;;;5117192;28;20087;-82
2022/04/27 12:14:32;;;;;;;5.18;1.90;;;13.40;94.20;;;;;;5118817;28;20096;-82
2022/04/27 12:16:58;;;;;;;5.93;1.95;;;13.40;94.40;;;;;;5117208;28;20048;-81
2022/04/27 12:19:27;;;;;;;4.03;2.25;;;13.30;94.30;;;;;;5118275;28;20043;-81
2022/04/27 12:22:11;;;;;;;3.80;2.05;;;13.30;94.70;;;;;;5118525;28;20387;-81
2022/04/27 12:24:46;;;;;;;3.85;1.90;;;13.30;93.90;;;;;;5118261;28;20047;-81
2022/04/27 12:27:21;;;;;;;4.75;1.98;;;13.10;94.40;;;;;;5118216;28;20064;-80
2022/04/27 12:29:47;;;;;;;3.63;2.00;;;13.30;93.30;;;;;;5116867;28;20063;-81
2022/04/27 12:32:13;;;;;;;7.20;1.92;;;13.30;94.40;;;;;;5118264;28;20044;-82
2022/04/27 12:37:31;;;;;;;7.38;2.47;;;13.40;94.20;;;;;;5118075;28;20048;-83
2022/04/27 12:39:57;;;;;;;6.22;2.08;;;13.20;93.40;;;;;;5118000;28;20118;-83
2022/04/27 12:42:23;;;;;;;4.93;1.73;;;13.30;94.60;;;;;;5118084;28;20051;-81
2022/04/27 12:44:48;;;;;;;6.10;1.70;;;13.50;95.00;;;;;;5118386;28;20386;-81
2022/04/27 12:47:16;;;;;;;5.20;1.60;;;13.80;94.70;;;;;;5117781;28;20043;-80
2022/04/27 12:49:50;;;;;;;5.45;2.00;;;14.10;94.40;;;;;;5100348;28;20083;-81
2022/04/27 12:52:23;;;;;;;5.97;2.08;;;14.50;94.40;;;;;;5117935;28;20384;-81
2022/04/27 12:54:52;;;;;;;4.15;1.65;;;14.70;93.40;;;;;;5117650;28;20180;-80
2022/04/27 12:57:18;;;;;;;4.65;1.90;;;14.80;93.30;;;;;;5117463;28;20069;-81
2022/04/27 13:00:00;;;;;;;9.73;2.07;;;15.10;93.00;;;;;;5117667;28;20118;-82
2022/04/27 13:02:26;;;;;;;4.10;1.70;;;15.20;92.70;;;;;;5116232;28;20535;-81
2022/04/27 13:04:53;;;;;;;4.50;1.88;;;15.40;92.70;;;;;;5117281;28;20050;-81
2022/04/27 13:07:19;;;;;;;4.53;1.90;;;15.50;92.30;;;;;;5117211;28;20150;-80
2022/04/27 13:12:35;;;;;;;4.28;1.42;;;15.70;92.50;;;;;;5115544;28;20048;-79
2022/04/27 13:15:02;;;;;;;5.10;1.90;;;15.90;92.20;;;;;;5117431;28;20048;-81